Time;durP1;ratioP1;P1;durP2;ratioP2;P2;SDS_P1;SDS_P2;PMS_P1;PMS_P2;Temp;Humidity;BMP_temperature;BMP_pressure;BME280_temperature;BME280_humidity;BME280_pressure;Samples;Min_cycle;Max_cycle;Signal;HPM_P1;HPM_P2
2022/10/29 00:00:26;;;;;;;9.57;3.20;;;15.70;99.90;;;;;;5140118;27;20416;-76
2022/10/29 00:02:51;;;;;;;4.85;3.13;;;15.70;99.90;;;;;;5140302;27;20384;-76
2022/10/29 00:05:17;;;;;;;8.20;2.97;;;15.70;99.90;;;;;;5139520;27;20082;-77
2022/10/29 00:07:43;;;;;;;9.35;3.42;;;15.60;99.90;;;;;;5140071;27;20060;-77
2022/10/29 00:10:08;;;;;;;9.60;3.72;;;15.60;99.90;;;;;;5140062;27;20039;-76
2022/10/29 00:12:35;;;;;;;13.48;4.30;;;15.60;99.90;;;;;;5139937;27;20433;-77
2022/10/29 00:15:01;;;;;;;17.42;5.10;;;15.60;99.90;;;;;;5105010;27;20129;-77
2022/10/29 00:17:27;;;;;;;19.88;5.10;;;15.70;99.90;;;;;;5140010;27;20110;-77
2022/10/29 00:19:53;;;;;;;9.90;3.70;;;15.80;99.90;;;;;;5121553;27;20085;-77
2022/10/29 00:22:18;;;;;;;19.98;5.57;;;15.80;99.90;;;;;;5121466;27;20050;-77
2022/10/29 00:24:44;;;;;;;13.25;3.97;;;15.80;99.90;;;;;;5139872;27;20043;-77
2022/10/29 00:27:10;;;;;;;10.55;4.07;;;15.80;99.90;;;;;;5139585;27;20042;-76
2022/10/29 00:29:35;;;;;;;16.17;4.53;;;15.80;99.90;;;;;;5139621;27;20070;-76
2022/10/29 00:32:01;;;;;;;23.25;5.68;;;15.80;99.90;;;;;;5139379;27;20067;-77
2022/10/29 00:34:27;;;;;;;19.05;5.38;;;15.80;99.90;;;;;;5138762;27;20051;-77
2022/10/29 00:36:53;;;;;;;19.55;4.55;;;15.80;99.90;;;;;;5139763;27;20043;-77
2022/10/29 00:39:19;;;;;;;20.80;5.00;;;15.80;99.90;;;;;;5139497;27;20351;-77
2022/10/29 00:41:44;;;;;;;23.58;5.35;;;15.80;99.90;;;;;;5139515;27;20432;-76
2022/10/29 00:44:29;;;;;;;22.15;5.18;;;15.70;99.90;;;;;;5120057;27;20050;-76
2022/10/29 00:46:58;;;;;;;17.10;5.30;;;15.70;99.90;;;;;;5139352;27;20047;-77
2022/10/29 00:49:25;;;;;;;16.48;4.68;;;15.70;99.90;;;;;;5139474;27;20046;-76
2022/10/29 00:51:52;;;;;;;15.88;4.55;;;15.50;99.90;;;;;;5139212;27;20072;-76
2022/10/29 00:54:18;;;;;;;16.60;4.72;;;15.40;99.90;;;;;;5121280;27;20074;-76
2022/10/29 00:56:52;;;;;;;17.73;5.07;;;15.40;99.90;;;;;;5120731;27;20104;-77
2022/10/29 00:59:18;;;;;;;21.83;5.35;;;15.40;99.90;;;;;;5139172;27;20039;-76
2022/10/29 01:01:47;;;;;;;16.48;5.05;;;15.40;99.90;;;;;;5138805;27;20046;-77
2022/10/29 01:04:13;;;;;;;13.88;4.47;;;15.30;99.90;;;;;;5138573;27;20047;-77
2022/10/29 01:06:45;;;;;;;12.88;4.80;;;15.20;99.90;;;;;;5121135;27;20114;-77
2022/10/29 01:09:11;;;;;;;22.15;5.75;;;15.10;99.90;;;;;;5139031;27;20147;-76
2022/10/29 01:12:04;;;;;;;12.80;5.35;;;15.10;99.90;;;;;;5138922;27;20067;-77
2022/10/29 01:14:54;;;;;;;17.58;5.00;;;15.10;99.90;;;;;;5138764;27;20042;-77
2022/10/29 01:17:41;;;;;;;21.40;5.80;;;15.20;99.90;;;;;;5138539;27;20427;-77
2022/10/29 01:20:44;;;;;;;24.52;6.38;;;15.20;99.90;;;;;;5138785;27;20072;-77
2022/10/29 01:23:34;;;;;;;15.07;5.93;;;15.30;99.90;;;;;;5138642;27;20042;-77
2022/10/29 01:26:27;;;;;;;20.88;4.97;;;15.30;99.90;;;;;;5138414;27;20432;-77
2022/10/29 01:29:15;;;;;;;20.90;5.90;;;15.30;99.90;;;;;;5138683;27;20328;-77
2022/10/29 01:31:59;;;;;;;11.10;4.55;;;15.40;99.90;;;;;;5138410;27;20035;-77
2022/10/29 01:34:39;;;;;;;20.15;6.10;;;15.40;99.90;;;;;;5137850;27;20055;-77
2022/10/29 01:37:23;;;;;;;27.38;7.15;;;15.30;99.90;;;;;;5138151;27;20043;-77
2022/10/29 01:39:53;;;;;;;13.82;6.22;;;15.30;99.90;;;;;;5138116;27;20087;-77
2022/10/29 01:42:56;;;;;;;16.25;6.95;;;15.40;99.90;;;;;;5138190;27;20051;-77
2022/10/29 01:45:28;;;;;;;20.23;7.30;;;15.40;99.90;;;;;;5084653;27;20051;-77
2022/10/29 01:48:04;;;;;;;16.65;7.07;;;15.40;99.90;;;;;;5138214;27;20043;-77
2022/10/29 01:50:31;;;;;;;17.63;7.25;;;15.40;99.90;;;;;;5138350;27;20083;-77
2022/10/29 01:52:57;;;;;;;16.85;6.07;;;15.40;99.90;;;;;;5138036;27;20035;-76
2022/10/29 01:55:29;;;;;;;18.63;6.80;;;15.40;99.90;;;;;;5137849;27;20123;-76
2022/10/29 01:57:55;;;;;;;25.15;7.03;;;15.40;99.90;;;;;;5137703;27;20034;-77
2022/10/29 02:00:21;;;;;;;20.13;7.70;;;15.30;99.90;;;;;;5138151;27;20091;-77
2022/10/29 02:03:05;;;;;;;20.92;8.18;;;15.30;99.90;;;;;;5119727;27;20416;-77
2022/10/29 02:06:05;;;;;;;55.90;11.23;;;15.30;99.90;;;;;;5137289;27;20100;-77
2022/10/29 02:08:46;;;;;;;22.75;8.40;;;15.30;99.90;;;;;;5137657;27;20035;-77
2022/10/29 02:11:37;;;;;;;23.52;8.18;;;15.30;99.90;;;;;;5137761;27;20035;-77
2022/10/29 02:14:11;;;;;;;18.17;7.88;;;15.30;99.90;;;;;;5137766;27;20081;-77
2022/10/29 02:16:36;;;;;;;19.90;8.43;;;15.30;99.90;;;;;;5137576;27;20035;-77
2022/10/29 02:19:04;;;;;;;19.02;7.72;;;15.30;99.90;;;;;;5137722;27;20114;-77
2022/10/29 02:21:30;;;;;;;27.00;8.05;;;15.30;99.90;;;;;;5137856;27;20074;-77
2022/10/29 02:23:55;;;;;;;15.93;7.55;;;15.30;99.90;;;;;;5137609;27;20046;-77
2022/10/29 02:26:21;;;;;;;14.68;7.45;;;15.30;99.90;;;;;;5137566;27;20096;-76
2022/10/29 02:28:47;;;;;;;12.50;6.68;;;15.30;99.90;;;;;;5119320;28;20039;-76
2022/10/29 02:31:12;;;;;;;17.00;6.97;;;15.30;99.90;;;;;;5137353;28;20039;-77
2022/10/29 02:33:38;;;;;;;28.65;8.07;;;15.30;99.90;;;;;;5119189;28;20063;-77
2022/10/29 02:36:04;;;;;;;17.23;7.15;;;15.30;99.90;;;;;;5119460;28;20389;-76
2022/10/29 02:38:29;;;;;;;20.02;8.07;;;15.30;99.90;;;;;;5137558;28;20430;-77
2022/10/29 02:40:55;;;;;;;17.50;7.75;;;15.40;99.90;;;;;;5119220;28;20070;-77
2022/10/29 02:43:21;;;;;;;18.00;6.68;;;15.40;99.90;;;;;;5137605;28;20039;-76
2022/10/29 02:45:46;;;;;;;28.67;8.05;;;15.50;99.90;;;;;;5137081;28;20056;-77
2022/10/29 02:48:12;;;;;;;11.63;6.07;;;15.50;99.90;;;;;;5119188;28;20050;-77
2022/10/29 02:50:37;;;;;;;6.68;5.25;;;15.50;99.90;;;;;;5137421;28;20039;-76
2022/10/29 02:53:03;;;;;;;10.05;5.53;;;15.50;99.90;;;;;;5137087;28;20035;-77
2022/10/29 02:55:29;;;;;;;8.65;5.35;;;15.50;99.90;;;;;;5137292;28;20047;-76
2022/10/29 02:57:54;;;;;;;11.63;5.70;;;15.40;99.90;;;;;;5137259;28;20039;-77
2022/10/29 03:00:20;;;;;;;21.17;7.05;;;15.40;99.90;;;;;;5137240;28;20046;-77
2022/10/29 03:02:51;;;;;;;40.08;9.43;;;15.50;99.90;;;;;;5137138;28;20043;-77
2022/10/29 03:05:17;;;;;;;19.52;5.85;;;15.50;99.90;;;;;;5137033;27;20035;-77
2022/10/29 03:07:43;;;;;;;10.10;5.53;;;15.50;99.90;;;;;;5141068;27;20070;-77
2022/10/29 03:10:09;;;;;;;11.32;5.40;;;15.60;99.90;;;;;;5141067;27;20423;-77
2022/10/29 03:12:35;;;;;;;14.38;6.30;;;15.60;99.90;;;;;;5140966;27;20042;-77
2022/10/29 03:15:00;;;;;;;9.18;5.70;;;15.50;99.90;;;;;;5141084;27;20043;-77
2022/10/29 03:17:26;;;;;;;10.77;5.70;;;15.40;99.90;;;;;;5140970;27;20039;-77
2022/10/29 03:19:52;;;;;;;9.20;5.78;;;15.40;99.90;;;;;;5140789;27;20035;-77
2022/10/29 03:22:17;;;;;;;9.95;5.25;;;15.40;99.90;;;;;;5122808;27;20046;-76
2022/10/29 03:24:43;;;;;;;10.70;5.95;;;15.40;99.90;;;;;;5140851;27;20039;-77
2022/10/29 03:27:09;;;;;;;9.35;5.40;;;15.50;99.90;;;;;;5141028;27;20046;-77
2022/10/29 03:29:34;;;;;;;11.90;6.35;;;15.40;99.90;;;;;;5140859;27;20031;-77
2022/10/29 03:32:00;;;;;;;15.40;5.43;;;15.40;99.90;;;;;;5140945;27;20060;-77
2022/10/29 03:34:25;;;;;;;14.43;5.75;;;15.30;99.90;;;;;;5139907;27;20134;-77
2022/10/29 03:36:51;;;;;;;10.05;5.50;;;15.30;99.90;;;;;;5140893;27;20035;-77
2022/10/29 03:39:17;;;;;;;16.83;6.25;;;15.30;99.90;;;;;;5140721;27;20420;-76
2022/10/29 03:41:42;;;;;;;10.73;6.43;;;15.30;99.90;;;;;;5140657;27;20464;-77
2022/10/29 03:44:08;;;;;;;9.98;5.50;;;15.20;99.90;;;;;;5140595;27;20331;-76
2022/10/29 03:46:34;;;;;;;25.60;6.28;;;15.10;99.90;;;;;;5122165;27;20039;-77
2022/10/29 03:48:59;;;;;;;12.98;6.13;;;15.00;99.90;;;;;;5140417;27;20114;-77
2022/10/29 03:51:25;;;;;;;11.73;6.43;;;15.10;99.90;;;;;;5140366;27;20035;-77
2022/10/29 03:53:50;;;;;;;17.20;7.03;;;15.10;99.90;;;;;;5140586;27;20043;-76
2022/10/29 03:56:16;;;;;;;11.20;5.88;;;15.00;99.90;;;;;;5140220;27;20080;-76
2022/10/29 03:58:42;;;;;;;27.42;7.90;;;15.00;99.90;;;;;;5139891;27;20050;-77
2022/10/29 04:01:09;;;;;;;35.45;7.88;;;15.00;99.90;;;;;;5139921;27;20031;-77
2022/10/29 04:03:36;;;;;;;16.02;6.50;;;14.90;99.90;;;;;;5139892;27;20417;-77
2022/10/29 04:06:09;;;;;;;19.38;7.20;;;14.90;99.90;;;;;;5139709;27;20047;-77
2022/10/29 04:08:34;;;;;;;22.67;7.38;;;14.90;99.90;;;;;;5121761;27;20034;-77
2022/10/29 04:11:00;;;;;;;13.30;6.50;;;15.00;99.90;;;;;;5140060;27;20039;-77
2022/10/29 04:13:26;;;;;;;22.15;7.50;;;15.00;99.90;;;;;;5121489;27;20039;-78
2022/10/29 04:15:55;;;;;;;17.58;6.80;;;15.00;99.90;;;;;;5140156;27;20050;-77
2022/10/29 04:18:21;;;;;;;17.33;7.03;;;15.10;99.90;;;;;;5139723;27;20075;-77
2022/10/29 04:20:47;;;;;;;25.48;8.05;;;15.00;99.90;;;;;;5139715;27;20047;-77
2022/10/29 04:23:13;;;;;;;21.70;7.35;;;14.70;99.90;;;;;;5121783;27;20072;-77
2022/10/29 04:25:38;;;;;;;15.25;7.32;;;14.70;99.90;;;;;;5139656;27;20047;-76
2022/10/29 04:28:04;;;;;;;15.07;6.93;;;14.70;99.90;;;;;;5139573;27;20374;-77
2022/10/29 04:30:30;;;;;;;36.50;8.98;;;14.70;99.90;;;;;;5139696;27;20476;-77
2022/10/29 04:32:59;;;;;;;19.92;7.47;;;14.60;99.90;;;;;;5121354;27;20039;-77
2022/10/29 04:35:27;;;;;;;38.13;9.18;;;14.70;99.90;;;;;;5098277;28;20048;-77
2022/10/29 04:37:54;;;;;;;43.95;9.65;;;14.90;99.90;;;;;;5098816;28;20036;-77
2022/10/29 04:40:22;;;;;;;15.73;7.40;;;15.00;99.90;;;;;;5097491;28;20036;-77
2022/10/29 04:42:48;;;;;;;18.20;8.30;;;15.10;99.90;;;;;;5098301;28;20065;-77
2022/10/29 04:45:13;;;;;;;18.20;8.52;;;15.10;99.90;;;;;;5098275;28;20123;-77
2022/10/29 04:47:39;;;;;;;14.60;7.88;;;15.00;99.90;;;;;;5098103;28;20040;-77
2022/10/29 04:50:05;;;;;;;12.45;7.07;;;15.00;99.90;;;;;;5098310;28;20036;-77
2022/10/29 04:52:30;;;;;;;14.57;7.80;;;15.00;99.90;;;;;;5098371;28;20043;-77
2022/10/29 04:54:56;;;;;;;15.45;7.72;;;15.00;99.90;;;;;;5098371;28;20413;-76
2022/10/29 04:57:22;;;;;;;28.60;9.00;;;15.00;99.90;;;;;;5098059;28;20098;-77
2022/10/29 04:59:47;;;;;;;20.20;8.25;;;14.90;99.90;;;;;;5098065;28;20123;-77
2022/10/29 05:02:13;;;;;;;21.15;8.50;;;15.00;99.90;;;;;;5096858;28;20047;-77
2022/10/29 05:04:39;;;;;;;17.60;8.55;;;14.90;99.90;;;;;;5097542;28;20050;-77
2022/10/29 05:07:04;;;;;;;19.15;8.65;;;14.90;99.90;;;;;;5097853;28;20114;-77
2022/10/29 05:09:30;;;;;;;17.65;8.65;;;14.90;99.90;;;;;;5097959;28;20097;-77
2022/10/29 05:11:56;;;;;;;24.02;9.40;;;14.80;99.90;;;;;;5097689;28;20429;-77
2022/10/29 05:14:21;;;;;;;20.23;9.48;;;14.80;99.90;;;;;;5097717;28;20051;-77
2022/10/29 05:16:47;;;;;;;18.13;9.25;;;14.80;99.90;;;;;;5097913;28;20067;-77
2022/10/29 05:19:12;;;;;;;28.42;9.70;;;14.80;99.90;;;;;;5097985;28;20356;-77
2022/10/29 05:21:38;;;;;;;20.15;9.63;;;14.80;99.90;;;;;;5097750;28;20445;-77
2022/10/29 05:24:04;;;;;;;42.83;11.15;;;14.80;99.90;;;;;;5097377;28;20051;-76
2022/10/29 05:26:31;;;;;;;20.92;10.18;;;14.90;99.90;;;;;;5097658;28;20036;-77
2022/10/29 05:28:57;;;;;;;14.48;8.85;;;14.90;99.90;;;;;;5096048;28;20040;-76
2022/10/29 05:31:22;;;;;;;22.48;9.55;;;14.90;99.90;;;;;;5097408;28;20456;-77
2022/10/29 05:33:48;;;;;;;25.08;10.30;;;14.90;99.90;;;;;;5110744;27;20051;-77
2022/10/29 05:36:14;;;;;;;32.03;10.77;;;14.90;99.90;;;;;;5138406;27;20051;-77
2022/10/29 05:38:39;;;;;;;15.30;9.02;;;14.90;99.90;;;;;;5120156;27;20039;-76
2022/10/29 05:41:05;;;;;;;15.93;8.90;;;15.00;99.90;;;;;;5138002;27;20031;-77
2022/10/29 05:43:30;;;;;;;33.38;10.20;;;15.00;99.90;;;;;;5120176;27;20088;-76
2022/10/29 05:45:56;;;;;;;16.40;8.75;;;14.90;99.90;;;;;;5137954;27;20082;-76
2022/10/29 05:48:22;;;;;;;18.95;9.25;;;14.90;99.90;;;;;;5138019;27;20071;-76
2022/10/29 05:50:47;;;;;;;17.77;9.55;;;14.70;99.90;;;;;;5138088;27;20043;-77
2022/10/29 05:53:14;;;;;;;37.08;10.95;;;14.70;99.90;;;;;;5138253;27;20027;-76
2022/10/29 05:55:40;;;;;;;23.00;10.25;;;14.60;99.90;;;;;;5137793;27;20427;-77
2022/10/29 05:58:09;;;;;;;22.17;10.57;;;14.70;99.90;;;;;;5138192;27;20039;-77
2022/10/29 06:00:37;;;;;;;33.03;10.27;;;14.50;99.90;;;;;;5137958;27;20042;-77
2022/10/29 06:03:08;;;;;;;18.63;9.57;;;14.50;99.90;;;;;;5137974;27;20038;-77
2022/10/29 06:05:33;;;;;;;27.73;9.45;;;14.40;99.90;;;;;;5137413;27;20066;-77
2022/10/29 06:07:59;;;;;;;19.85;9.70;;;14.40;99.90;;;;;;5137803;27;20107;-77
2022/10/29 06:10:27;;;;;;;22.13;10.38;;;14.40;99.90;;;;;;5137647;27;20043;-77
2022/10/29 06:12:53;;;;;;;42.53;11.63;;;14.50;99.90;;;;;;5119826;27;20390;-77
2022/10/29 06:15:19;;;;;;;15.13;9.07;;;14.60;99.90;;;;;;5137953;27;20143;-77
2022/10/29 06:17:45;;;;;;;25.63;11.05;;;14.70;99.90;;;;;;5137608;27;20039;-77
2022/10/29 06:20:13;;;;;;;15.23;8.80;;;14.60;99.90;;;;;;5137757;27;20064;-77
2022/10/29 06:22:39;;;;;;;46.63;10.20;;;14.60;99.90;;;;;;5137457;27;20051;-77
2022/10/29 06:25:05;;;;;;;19.67;9.25;;;14.50;99.90;;;;;;5137560;27;20035;-76
2022/10/29 06:27:30;;;;;;;32.63;10.60;;;14.60;99.90;;;;;;5137771;27;20080;-77
2022/10/29 06:29:56;;;;;;;19.38;8.68;;;14.60;99.90;;;;;;5119463;28;20099;-77
2022/10/29 06:32:22;;;;;;;16.00;8.13;;;14.70;99.90;;;;;;5119484;28;20031;-77
2022/10/29 06:34:48;;;;;;;26.80;7.97;;;14.80;99.90;;;;;;5136799;28;20069;-76
2022/10/29 06:37:13;;;;;;;27.00;8.95;;;15.00;99.90;;;;;;5119136;28;20105;-77
2022/10/29 06:39:39;;;;;;;44.15;8.75;;;15.00;99.90;;;;;;5137590;28;20108;-77
2022/10/29 06:42:05;;;;;;;16.38;7.53;;;14.90;99.90;;;;;;5121726;27;20421;-77
2022/10/29 06:44:30;;;;;;;26.55;9.38;;;14.80;99.90;;;;;;5141226;27;20434;-72
2022/10/29 06:46:56;;;;;;;47.40;9.82;;;14.90;99.90;;;;;;5141812;27;20035;-72
2022/10/29 06:49:22;;;;;;;77.97;10.27;;;15.00;99.90;;;;;;5141411;27;20035;-69
2022/10/29 06:51:48;;;;;;;19.42;8.02;;;15.10;99.90;;;;;;5141321;27;20088;-73
2022/10/29 06:54:13;;;;;;;19.60;7.72;;;15.10;99.90;;;;;;5141634;27;20039;-72
2022/10/29 06:56:39;;;;;;;41.28;9.77;;;15.10;99.90;;;;;;5123275;27;20050;-73
2022/10/29 06:59:05;;;;;;;23.77;8.60;;;15.30;99.90;;;;;;5141389;27;20031;-73
2022/10/29 07:01:32;;;;;;;19.48;8.77;;;15.30;99.90;;;;;;5141190;27;20035;-72
2022/10/29 07:04:01;;;;;;;19.00;8.18;;;15.40;99.90;;;;;;5140948;27;20323;-73
2022/10/29 07:06:31;;;;;;;23.30;8.55;;;15.30;99.90;;;;;;5122687;27;20078;-70
2022/10/29 07:08:57;;;;;;;29.05;9.80;;;15.40;99.90;;;;;;5106007;27;20051;-72
2022/10/29 07:11:22;;;;;;;29.92;9.27;;;15.50;99.90;;;;;;5141365;27;20045;-73
2022/10/29 07:13:48;;;;;;;24.95;9.43;;;15.60;99.90;;;;;;5141016;27;20118;-72
2022/10/29 07:16:14;;;;;;;20.83;8.80;;;15.70;99.90;;;;;;5141089;27;20074;-73
2022/10/29 07:18:39;;;;;;;24.55;9.73;;;15.80;99.90;;;;;;5140882;27;20045;-73
2022/10/29 07:21:05;;;;;;;23.83;10.10;;;15.90;99.90;;;;;;5140902;27;20050;-72
2022/10/29 07:23:30;;;;;;;28.75;10.93;;;15.80;99.90;;;;;;5122887;27;20039;-73
2022/10/29 07:25:56;;;;;;;28.02;10.55;;;15.70;99.90;;;;;;5140551;27;20074;-73
2022/10/29 07:28:24;;;;;;;30.77;10.75;;;15.80;99.90;;;;;;5122848;27;20039;-73
2022/10/29 07:30:51;;;;;;;33.30;11.82;;;15.80;99.90;;;;;;5140600;27;20035;-73
2022/10/29 07:33:17;;;;;;;58.35;12.73;;;15.80;99.90;;;;;;5122458;27;20031;-73
2022/10/29 07:35:44;;;;;;;28.10;11.18;;;15.90;99.90;;;;;;5109860;28;20039;-74
2022/10/29 07:38:11;;;;;;;28.63;10.63;;;16.00;99.90;;;;;;5136599;27;20047;-74
2022/10/29 07:40:38;;;;;;;25.55;10.88;;;16.00;99.90;;;;;;5139201;27;20051;-73
2022/10/29 07:43:04;;;;;;;31.00;10.23;;;16.10;99.90;;;;;;5140596;27;20331;-73
2022/10/29 07:45:29;;;;;;;41.15;11.38;;;16.10;99.90;;;;;;5140343;27;20047;-73
2022/10/29 07:48:03;;;;;;;53.72;11.65;;;16.10;99.90;;;;;;5140134;27;20035;-73
2022/10/29 07:50:30;;;;;;;129.93;15.63;;;16.10;99.90;;;;;;5140262;27;20442;-73
2022/10/29 07:52:59;;;;;;;72.78;12.60;;;16.00;99.90;;;;;;5121496;27;20047;-73
2022/10/29 07:55:24;;;;;;;86.75;12.43;;;15.90;99.90;;;;;;5140495;27;20062;-73
2022/10/29 07:58:00;;;;;;;61.67;11.85;;;15.80;99.90;;;;;;5140103;27;20427;-74
2022/10/29 08:00:33;;;;;;;38.37;11.00;;;15.80;99.90;;;;;;5105603;27;20046;-75
2022/10/29 08:02:59;;;;;;;77.47;13.77;;;15.80;99.90;;;;;;5140005;27;20982;-74
2022/10/29 08:05:27;;;;;;;33.90;10.23;;;15.70;99.90;;;;;;5139705;27;20043;-76
2022/10/29 08:07:56;;;;;;;30.70;10.50;;;15.70;99.90;;;;;;5114127;27;20042;-76
2022/10/29 08:10:22;;;;;;;42.58;12.63;;;15.70;99.90;;;;;;5114304;27;20037;-76
2022/10/29 08:12:50;;;;;;;36.22;12.02;;;15.90;99.90;;;;;;5106187;27;20042;-70
2022/10/29 08:15:16;;;;;;;43.30;13.63;;;16.00;99.90;;;;;;5114144;27;20035;-70
2022/10/29 08:17:42;;;;;;;40.92;12.55;;;15.90;99.90;;;;;;5137163;27;20046;-69
2022/10/29 08:20:08;;;;;;;47.17;16.33;;;16.00;99.90;;;;;;5120295;27;20043;-72
2022/10/29 08:22:34;;;;;;;58.67;17.13;;;16.00;99.90;;;;;;5121250;27;20078;-71
2022/10/29 08:25:00;;;;;;;44.88;17.42;;;15.90;99.90;;;;;;5139870;27;20035;-71
2022/10/29 08:27:26;;;;;;;41.78;16.85;;;15.90;99.90;;;;;;5139811;27;20114;-72
2022/10/29 08:29:51;;;;;;;54.00;19.15;;;16.00;99.90;;;;;;5121296;27;20039;-72
2022/10/29 08:32:17;;;;;;;49.97;19.67;;;16.00;99.90;;;;;;5139951;27;20039;-72
2022/10/29 08:34:43;;;;;;;55.55;20.48;;;16.00;99.90;;;;;;5120714;27;20058;-72
2022/10/29 08:37:08;;;;;;;49.47;20.02;;;16.00;99.90;;;;;;5121343;27;20522;-72
2022/10/29 08:39:34;;;;;;;60.45;22.75;;;16.00;99.90;;;;;;5139410;27;20043;-71
2022/10/29 08:42:15;;;;;;;71.38;23.08;;;16.00;99.90;;;;;;5139501;27;20043;-72
2022/10/29 08:44:52;;;;;;;57.88;23.48;;;15.90;99.90;;;;;;5139068;27;20336;-72
2022/10/29 08:47:20;;;;;;;49.17;22.02;;;15.80;99.90;;;;;;5139618;27;20031;-72
2022/10/29 08:50:01;;;;;;;51.75;21.42;;;15.90;99.90;;;;;;5139472;27;20036;-72
2022/10/29 08:52:29;;;;;;;51.55;23.25;;;16.00;99.90;;;;;;5139539;27;20109;-72
2022/10/29 08:55:17;;;;;;;71.97;24.88;;;16.00;99.90;;;;;;5139011;27;20050;-73
2022/10/29 08:57:51;;;;;;;64.70;24.85;;;16.10;99.90;;;;;;5123046;27;20042;-73
2022/10/29 09:00:20;;;;;;;62.75;24.70;;;16.00;99.90;;;;;;5139301;27;20336;-73
2022/10/29 09:02:46;;;;;;;59.22;24.30;;;16.00;99.90;;;;;;5138862;27;20412;-73
2022/10/29 09:05:14;;;;;;;79.70;26.67;;;15.90;99.90;;;;;;5137800;27;20064;-73
2022/10/29 09:07:53;;;;;;;93.70;29.60;;;15.90;99.90;;;;;;5120971;27;20055;-73
2022/10/29 09:10:37;;;;;;;55.70;25.08;;;16.00;99.90;;;;;;5139046;27;20074;-73
2022/10/29 09:13:14;;;;;;;60.60;25.92;;;16.00;99.90;;;;;;5139080;27;20071;-73
2022/10/29 09:16:14;;;;;;;49.13;23.17;;;16.20;99.90;;;;;;5120632;27;20088;-74
2022/10/29 09:19:16;;;;;;;54.78;24.33;;;16.20;99.90;;;;;;5138948;27;20039;-73
2022/10/29 09:22:10;;;;;;;65.63;25.52;;;16.20;99.90;;;;;;5120739;27;20039;-72
2022/10/29 09:24:41;;;;;;;49.97;23.10;;;16.20;99.90;;;;;;5138415;27;20428;-73
2022/10/29 09:27:21;;;;;;;67.07;25.73;;;16.00;99.90;;;;;;5120365;27;20039;-73
2022/10/29 09:30:13;;;;;;;75.43;27.38;;;16.10;99.90;;;;;;5138393;27;20035;-73
2022/10/29 09:32:55;;;;;;;62.63;24.55;;;16.30;99.90;;;;;;5137688;27;20055;-73
2022/10/29 09:35:27;;;;;;;51.13;24.70;;;16.40;99.90;;;;;;5137827;27;20436;-73
2022/10/29 09:38:00;;;;;;;54.78;23.52;;;16.40;99.90;;;;;;5138361;27;20118;-75
2022/10/29 09:40:34;;;;;;;54.45;23.35;;;16.60;99.90;;;;;;5138220;27;20423;-71
2022/10/29 09:43:13;;;;;;;47.60;22.48;;;16.70;99.90;;;;;;5138148;27;20440;-72
2022/10/29 09:45:56;;;;;;;39.42;21.20;;;16.70;99.90;;;;;;5138203;27;20131;-72
2022/10/29 09:48:37;;;;;;;39.97;19.55;;;16.70;99.90;;;;;;5138426;27;20035;-73
2022/10/29 09:51:26;;;;;;;44.88;20.38;;;16.50;99.90;;;;;;5119884;27;20035;-72
2022/10/29 09:53:52;;;;;;;57.20;22.42;;;16.50;99.90;;;;;;5138229;27;20340;-72
2022/10/29 09:56:18;;;;;;;57.63;22.27;;;16.60;99.90;;;;;;5119883;27;20039;-72
2022/10/29 09:58:49;;;;;;;41.92;19.52;;;16.60;99.90;;;;;;5126280;27;20039;-74
2022/10/29 10:01:15;;;;;;;45.90;20.23;;;16.70;99.90;;;;;;5094648;27;20137;-74
2022/10/29 10:03:44;;;;;;;49.20;20.98;;;16.90;99.90;;;;;;5107491;27;20114;-74
2022/10/29 10:06:15;;;;;;;39.53;18.73;;;17.00;99.90;;;;;;5118769;27;20451;-72
2022/10/29 10:09:02;;;;;;;51.08;21.13;;;17.10;99.90;;;;;;5121769;27;20387;-73
2022/10/29 10:11:47;;;;;;;43.25;19.40;;;17.10;99.90;;;;;;5116845;28;20542;-73
2022/10/29 10:14:18;;;;;;;40.47;20.02;;;17.20;99.90;;;;;;5116913;28;20131;-73
2022/10/29 10:16:44;;;;;;;41.92;19.48;;;17.40;99.90;;;;;;5116948;28;20040;-73
2022/10/29 10:19:28;;;;;;;49.65;20.73;;;17.50;99.90;;;;;;5116832;28;20417;-73
2022/10/29 10:21:58;;;;;;;37.83;18.92;;;17.60;99.90;;;;;;5116816;28;20123;-73
2022/10/29 10:24:31;;;;;;;37.80;18.88;;;17.70;99.90;;;;;;5114239;28;20047;-72
2022/10/29 10:26:57;;;;;;;39.17;18.58;;;17.80;99.90;;;;;;5130920;27;20452;-69
2022/10/29 10:29:24;;;;;;;35.15;17.20;;;17.90;99.90;;;;;;5098639;28;20054;-69
2022/10/29 10:32:10;;;;;;;41.05;17.58;;;17.90;99.90;;;;;;5123527;28;20062;-69
2022/10/29 10:34:38;;;;;;;36.55;15.48;;;18.00;99.90;;;;;;5118758;28;20055;-69
2022/10/29 10:37:16;;;;;;;44.00;16.30;;;18.10;99.90;;;;;;5137409;28;20043;-69
2022/10/29 10:40:00;;;;;;;34.17;15.65;;;18.30;99.90;;;;;;5137451;28;20050;-68
2022/10/29 10:42:29;;;;;;;35.55;16.70;;;18.40;99.90;;;;;;5137299;28;20114;-69
2022/10/29 10:44:58;;;;;;;31.50;15.82;;;18.50;99.90;;;;;;5120812;28;20042;-69
2022/10/29 10:47:31;;;;;;;29.83;14.23;;;18.20;99.90;;;;;;5116562;28;20031;-69
2022/10/29 10:50:25;;;;;;;32.65;14.52;;;18.10;99.90;;;;;;5098759;28;20447;-68
2022/10/29 10:52:53;;;;;;;37.20;14.82;;;18.30;99.90;;;;;;5099955;28;20042;-69
2022/10/29 10:55:52;;;;;;;39.40;15.52;;;18.40;99.90;;;;;;5116350;28;20094;-68
2022/10/29 10:58:33;;;;;;;26.52;13.95;;;18.40;99.90;;;;;;5113177;28;20059;-69
2022/10/29 11:01:04;;;;;;;31.02;13.98;;;18.30;99.90;;;;;;5128051;28;20035;-69
2022/10/29 11:03:37;;;;;;;27.02;12.20;;;18.50;99.90;;;;;;5098516;28;20093;-69
2022/10/29 11:06:09;;;;;;;32.75;13.45;;;18.70;99.90;;;;;;5115923;28;20054;-69
2022/10/29 11:08:46;;;;;;;30.35;13.32;;;18.80;99.90;;;;;;5116364;28;20345;-70
2022/10/29 11:11:26;;;;;;;25.83;12.02;;;19.10;99.90;;;;;;5119914;28;20115;-69
2022/10/29 11:13:54;;;;;;;27.60;12.60;;;19.00;99.90;;;;;;5097989;28;20444;-69
2022/10/29 11:16:47;;;;;;;30.80;11.88;;;18.90;99.90;;;;;;5125153;28;20039;-69
2022/10/29 11:19:29;;;;;;;26.27;11.13;;;19.00;99.90;;;;;;5116088;28;20431;-69
2022/10/29 11:22:07;;;;;;;23.42;12.07;;;19.10;99.90;;;;;;5116255;28;20047;-70
2022/10/29 11:24:51;;;;;;;27.15;11.10;;;19.10;99.90;;;;;;5098047;28;20047;-69
2022/10/29 11:27:24;;;;;;;26.40;9.65;;;19.40;99.90;;;;;;5117225;28;20046;-70
2022/10/29 11:30:01;;;;;;;27.40;10.30;;;19.50;99.90;;;;;;5119478;28;20036;-70
2022/10/29 11:32:45;;;;;;;;;;;19.60;99.90;;;;;;5120653;28;20032;-70
2022/10/29 11:35:15;;;;;;;25.98;9.82;;;19.60;99.90;;;;;;5132310;27;19977;-70
2022/10/29 11:37:57;;;;;;;25.20;9.27;;;19.60;99.90;;;;;;5122166;27;20115;-72
2022/10/29 11:40:41;;;;;;;20.35;10.20;;;19.70;99.90;;;;;;5140137;27;20078;-70
2022/10/29 11:43:16;;;;;;;21.88;9.85;;;20.10;99.90;;;;;;5119258;27;20071;-71
2022/10/29 11:46:15;;;;;;;24.50;11.20;;;20.60;99.90;;;;;;5130164;27;20366;-70
2022/10/29 11:48:43;;;;;;;20.25;10.98;;;21.00;99.90;;;;;;5120325;27;20082;-71
2022/10/29 11:51:27;;;;;;;26.50;11.38;;;21.10;99.90;;;;;;5123715;27;20039;-71
2022/10/29 11:54:08;;;;;;;25.45;11.48;;;21.00;99.90;;;;;;5126495;27;20063;-71
2022/10/29 11:56:45;;;;;;;21.05;10.48;;;21.10;99.90;;;;;;5126735;27;20086;-71
2022/10/29 11:59:48;;;;;;;24.73;10.73;;;20.90;99.90;;;;;;5128480;27;20313;-71
2022/10/29 12:03:08;;;;;;;22.02;11.27;;;20.90;99.90;;;;;;5139908;27;20039;-71
2022/10/29 12:05:39;;;;;;;21.85;10.30;;;20.60;99.90;;;;;;5016196;28;20157;-70
2022/10/29 12:08:30;;;;;;;25.55;10.95;;;20.60;99.90;;;;;;5105755;27;20050;-70
2022/10/29 12:11:35;;;;;;;26.13;12.07;;;20.60;99.90;;;;;;5139169;27;20448;-70
2022/10/29 12:14:22;;;;;;;22.10;10.40;;;20.60;99.90;;;;;;5107199;27;20055;-71
2022/10/29 12:16:59;;;;;;;23.13;11.73;;;20.50;99.90;;;;;;5140173;27;20065;-70
2022/10/29 12:19:51;;;;;;;28.10;12.73;;;20.40;99.90;;;;;;5139566;27;20047;-70
2022/10/29 12:22:37;;;;;;;21.13;10.90;;;20.30;99.90;;;;;;5139749;27;20096;-70
2022/10/29 12:25:15;;;;;;;29.30;12.93;;;20.30;99.90;;;;;;5121705;27;20428;-70
2022/10/29 12:27:43;;;;;;;25.00;12.02;;;20.30;99.90;;;;;;5121128;27;20581;-71
2022/10/29 12:30:13;;;;;;;31.88;12.98;;;20.30;99.90;;;;;;5139611;27;20039;-71
2022/10/29 12:32:47;;;;;;;25.65;12.35;;;20.40;99.90;;;;;;5139384;27;20038;-70
2022/10/29 12:35:24;;;;;;;22.35;10.85;;;20.30;99.90;;;;;;5120397;27;20130;-72
2022/10/29 12:38:28;;;;;;;27.70;11.80;;;20.30;99.90;;;;;;5139381;27;20067;-67
2022/10/29 12:41:00;;;;;;;21.98;10.35;;;20.40;99.90;;;;;;5121121;27;20436;-71
2022/10/29 12:43:29;;;;;;;22.08;11.07;;;20.50;99.90;;;;;;5121051;27;20035;-73
2022/10/29 12:46:39;;;;;;;19.55;10.43;;;20.50;99.90;;;;;;5139226;27;20082;-71
2022/10/29 12:49:27;;;;;;;26.25;9.60;;;20.70;99.90;;;;;;5139225;27;20039;-72
2022/10/29 12:52:08;;;;;;;21.50;9.73;;;20.60;99.90;;;;;;5139812;27;20031;-71
2022/10/29 12:54:36;;;;;;;19.63;9.18;;;20.90;99.90;;;;;;5121072;27;20088;-71